Aviation Digital Data Service (ADDS)

Output produced by METARs form (0612 UTC 23 August 2017)
found at http://aviationweather.gov/adds/metars/
 
KIAG 230537Z 2306/2406 27008KT P6SM SKC 
     FM231400 26015G22KT P6SM SCT045 
     FM231700 26016G24KT P6SM BKN045 
     FM232300 30011KT P6SM SCT045 
     FM240300 30006KT P6SM SCT045